createdAt,value
2019-05-29T00:00:31.081Z,2.30
2019-05-29T00:03:03.099Z,2.60
2019-05-29T00:05:35.047Z,2.50
2019-05-29T00:08:08.114Z,2.40
2019-05-29T00:10:41.193Z,2.30
2019-05-29T00:13:14.386Z,2.50
2019-05-29T00:15:46.503Z,2.40
2019-05-29T00:18:18.672Z,2.63
2019-05-29T00:20:50.684Z,2.30
2019-05-29T00:23:22.657Z,2.50
2019-05-29T00:25:54.633Z,2.37
2019-05-29T00:28:26.601Z,2.97
2019-05-29T00:30:58.560Z,2.80
2019-05-29T00:33:30.598Z,2.60
2019-05-29T00:36:02.585Z,2.70
2019-05-29T00:38:34.566Z,2.57
2019-05-29T00:41:06.775Z,3.00
2019-05-29T00:43:38.790Z,2.50
2019-05-29T00:46:11.388Z,2.57
2019-05-29T00:48:43.421Z,2.57
2019-05-29T00:51:15.357Z,2.60
2019-05-29T00:53:47.359Z,2.83
2019-05-29T00:56:19.281Z,2.87
2019-05-29T00:58:51.246Z,1.90
2019-05-29T01:01:23.183Z,2.30
2019-05-29T01:03:55.155Z,2.80
2019-05-29T01:06:27.116Z,2.40
2019-05-29T01:08:59.103Z,2.40
2019-05-29T01:11:31.057Z,2.63
2019-05-29T01:14:03.173Z,2.60
2019-05-29T01:16:35.139Z,2.80
2019-05-29T01:19:25.459Z,2.83
2019-05-29T01:21:57.596Z,2.73
2019-05-29T01:24:29.767Z,2.43
2019-05-29T01:27:01.738Z,2.60
2019-05-29T01:29:33.683Z,2.83
2019-05-29T01:32:05.620Z,2.57
2019-05-29T01:34:37.611Z,2.50
2019-05-29T01:37:09.594Z,2.77
2019-05-29T01:39:41.553Z,2.60
2019-05-29T01:42:13.518Z,2.50
2019-05-29T01:44:45.473Z,2.80
2019-05-29T01:47:17.477Z,2.57
2019-05-29T01:49:49.431Z,2.43
2019-05-29T01:52:21.896Z,2.73
2019-05-29T01:54:55.439Z,2.63
2019-05-29T01:57:28.021Z,2.90
2019-05-29T02:00:00.069Z,3.10
2019-05-29T02:02:32.043Z,3.07
2019-05-29T02:05:04.172Z,2.83
2019-05-29T02:07:36.150Z,2.90
2019-05-29T02:10:08.216Z,2.80
2019-05-29T02:12:40.181Z,2.80
2019-05-29T02:15:23.733Z,3.07
2019-05-29T02:17:46.306Z,2.60
2019-05-29T02:20:19.131Z,2.67
2019-05-29T02:22:51.059Z,2.50
2019-05-29T02:25:24.246Z,2.57
2019-05-29T02:27:56.689Z,2.20
2019-05-29T02:30:30.898Z,2.67
2019-05-29T02:33:02.564Z,2.50
2019-05-29T02:35:34.505Z,2.93
2019-05-29T02:38:06.465Z,2.63
2019-05-29T02:40:38.415Z,2.13
2019-05-29T02:43:10.384Z,2.70
2019-05-29T02:45:53.766Z,2.80
2019-05-29T02:48:16.190Z,2.80
2019-05-29T02:50:48.153Z,2.53
2019-05-29T02:53:20.237Z,2.60
2019-05-29T02:55:52.164Z,2.90
2019-05-29T02:58:25.817Z,2.63
2019-05-29T03:00:58.010Z,3.00
2019-05-29T03:03:37.977Z,2.80
2019-05-29T03:06:04.103Z,2.70
2019-05-29T03:08:36.082Z,2.90
2019-05-29T03:11:08.061Z,2.57
2019-05-29T03:13:40.064Z,2.90
2019-05-29T03:16:13.051Z,3.30
2019-05-29T03:18:45.379Z,3.40
2019-05-29T03:21:17.321Z,2.80
2019-05-29T03:23:49.296Z,2.70
2019-05-29T03:26:24.739Z,3.23
2019-05-29T03:28:55.146Z,3.47
2019-05-29T03:31:30.959Z,3.37
2019-05-29T03:34:01.032Z,3.43
2019-05-29T03:36:39.290Z,3.70
2019-05-29T03:39:06.856Z,3.60
2019-05-29T03:41:39.179Z,3.20
2019-05-29T03:44:11.224Z,3.30
2019-05-29T03:46:45.955Z,3.23
2019-05-29T03:49:17.097Z,3.60
2019-05-29T03:51:49.037Z,2.87
2019-05-29T03:54:21.067Z,3.40
2019-05-29T03:56:52.999Z,2.93
2019-05-29T03:59:26.581Z,3.20
2019-05-29T04:01:58.725Z,3.67
2019-05-29T04:04:31.359Z,3.13
2019-05-29T04:07:03.858Z,2.90
2019-05-29T04:09:37.272Z,3.40
2019-05-29T04:12:10.545Z,3.30
2019-05-29T04:14:42.501Z,3.60
2019-05-29T04:17:14.576Z,3.70
2019-05-29T04:19:46.567Z,3.37
2019-05-29T04:22:21.960Z,3.07
2019-05-29T04:24:54.217Z,3.60
2019-05-29T04:27:27.860Z,3.73
2019-05-29T04:30:01.825Z,3.50
2019-05-29T04:32:34.247Z,3.40
2019-05-29T04:35:06.802Z,2.77
2019-05-29T04:37:39.795Z,3.20
2019-05-29T04:40:12.101Z,3.20
2019-05-29T04:42:44.025Z,3.30
2019-05-29T04:45:16.036Z,3.00
2019-05-29T04:47:47.990Z,3.23
2019-05-29T04:50:20.055Z,3.30
2019-05-29T04:52:52.044Z,3.30
2019-05-29T04:55:24.029Z,3.30
2019-05-29T04:57:56.012Z,3.10
2019-05-29T05:00:29.036Z,3.40
2019-05-29T05:03:01.048Z,3.40
2019-05-29T05:05:33.296Z,3.40
2019-05-29T05:08:05.257Z,4.20
2019-05-29T05:10:41.026Z,3.73
2019-05-29T05:13:12.772Z,3.70
2019-05-29T05:15:45.943Z,3.60
2019-05-29T05:18:18.026Z,3.60
2019-05-29T05:20:49.985Z,4.00
2019-05-29T05:23:21.953Z,3.80
2019-05-29T05:25:53.920Z,3.97
2019-05-29T05:28:25.863Z,4.93
2019-05-29T05:30:57.898Z,4.60
2019-05-29T05:33:30.413Z,4.83
2019-05-29T05:36:02.486Z,5.20
2019-05-29T05:38:34.711Z,5.00
2019-05-29T05:41:06.787Z,4.90
2019-05-29T05:43:39.026Z,5.73
2019-05-29T05:46:11.148Z,5.90
2019-05-29T05:48:43.074Z,5.97
2019-05-29T05:51:15.048Z,5.53
2019-05-29T05:53:47.058Z,5.53
2019-05-29T05:56:19.012Z,6.00
2019-05-29T05:58:51.010Z,6.10
2019-05-29T06:01:22.952Z,6.97
2019-05-29T06:03:54.968Z,7.20
2019-05-29T06:06:26.903Z,7.77
2019-05-29T06:08:58.862Z,7.03
2019-05-29T06:11:32.084Z,6.50
2019-05-29T06:14:04.253Z,7.60
2019-05-29T06:16:36.483Z,8.00
2019-05-29T06:19:08.582Z,7.33
2019-05-29T06:21:41.161Z,7.53
2019-05-29T06:24:13.131Z,8.23
2019-05-29T06:26:45.084Z,7.10
2019-05-29T06:29:17.044Z,7.17
2019-05-29T06:31:49.018Z,7.33
2019-05-29T06:34:20.986Z,7.97
2019-05-29T06:36:52.954Z,7.90
2019-05-29T06:39:24.948Z,8.30
2019-05-29T06:41:56.902Z,8.20
2019-05-29T06:44:28.870Z,7.40
2019-05-29T06:47:00.826Z,8.10
2019-05-29T06:49:33.839Z,7.57
2019-05-29T06:52:09.115Z,7.43
2019-05-29T06:54:40.066Z,7.10
2019-05-29T06:57:12.043Z,7.23
2019-05-29T06:59:44.746Z,8.17
2019-05-29T07:02:16.799Z,8.53
2019-05-29T07:04:48.794Z,8.53
2019-05-29T07:07:20.733Z,8.30
2019-05-29T07:09:52.702Z,7.30
2019-05-29T07:12:24.680Z,6.47
2019-05-29T07:14:56.645Z,5.77
2019-05-29T07:17:28.594Z,5.93
2019-05-29T07:20:03.951Z,5.50
2019-05-29T07:22:34.486Z,5.80
2019-05-29T07:25:06.453Z,5.50
2019-05-29T07:27:38.810Z,4.80
2019-05-29T07:30:11.176Z,6.50
2019-05-29T07:32:49.586Z,5.80
2019-05-29T07:35:17.007Z,5.37
2019-05-29T07:37:48.977Z,5.87
2019-05-29T07:40:21.237Z,5.10
2019-05-29T07:42:56.456Z,5.60
2019-05-29T07:45:27.076Z,6.40
2019-05-29T07:47:59.043Z,6.10
2019-05-29T07:50:31.053Z,5.87
2019-05-29T07:53:03.027Z,6.35
2019-05-29T07:55:35.014Z,5.80
2019-05-29T07:58:06.961Z,5.45
2019-05-29T08:01:02.640Z,4.87
2019-05-29T08:03:12.787Z,5.85
2019-05-29T08:05:47.959Z,5.33
2019-05-29T08:08:18.676Z,5.50
2019-05-29T08:10:50.682Z,5.72
2019-05-29T08:13:22.635Z,5.45
2019-05-29T08:16:02.768Z,5.12
2019-05-29T08:18:28.506Z,5.05
2019-05-29T08:21:00.510Z,5.03
2019-05-29T08:23:32.481Z,4.97
2019-05-29T08:26:04.460Z,4.95
2019-05-29T08:28:36.410Z,5.62
2019-05-29T08:31:08.410Z,5.22
2019-05-29T08:33:40.805Z,5.67
2019-05-29T08:36:12.916Z,5.67
2019-05-29T08:38:45.798Z,5.03
2019-05-29T08:41:17.951Z,4.70
2019-05-29T08:43:50.785Z,4.50
2019-05-29T08:46:22.891Z,4.03
2019-05-29T08:48:54.869Z,3.60
2019-05-29T08:51:26.910Z,4.92
2019-05-29T08:53:58.871Z,4.62
2019-05-29T08:56:30.879Z,4.08
2019-05-29T08:59:02.955Z,3.62
2019-05-29T09:01:34.966Z,4.22
2019-05-29T09:04:06.998Z,4.62
2019-05-29T09:06:39.121Z,5.58
2019-05-29T09:09:11.103Z,4.08
2019-05-29T09:11:43.108Z,4.53
2019-05-29T09:14:15.082Z,4.67
2019-05-29T09:16:47.044Z,5.12
2019-05-29T09:19:21.099Z,4.25
2019-05-29T09:21:52.907Z,4.20
2019-05-29T09:24:24.879Z,3.60
2019-05-29T09:26:56.883Z,4.20
2019-05-29T09:29:28.867Z,4.40
2019-05-29T09:32:00.831Z,4.37
2019-05-29T09:34:32.808Z,4.25
2019-05-29T09:37:04.792Z,4.58
2019-05-29T09:39:36.766Z,5.00
2019-05-29T09:42:08.739Z,4.12
2019-05-29T09:44:40.709Z,4.67
2019-05-29T09:47:12.655Z,3.15
2019-05-29T09:49:44.657Z,4.60
2019-05-29T09:52:16.625Z,3.83
2019-05-29T09:54:48.638Z,4.12
2019-05-29T09:57:20.616Z,4.37
2019-05-29T09:59:53.786Z,3.55
2019-05-29T10:02:26.397Z,4.03
2019-05-29T10:05:00.491Z,4.22
2019-05-29T10:07:32.259Z,4.87
2019-05-29T10:10:05.303Z,5.28
2019-05-29T10:12:37.312Z,4.33
2019-05-29T10:15:09.738Z,4.53
2019-05-29T10:17:41.727Z,3.33
2019-05-29T10:20:14.526Z,3.80
2019-05-29T10:22:46.462Z,3.60
2019-05-29T10:25:18.537Z,3.10
2019-05-29T10:27:50.486Z,3.83
2019-05-29T10:30:24.297Z,3.87
2019-05-29T10:32:56.284Z,4.00
2019-05-29T10:35:28.292Z,4.83
2019-05-29T10:38:00.270Z,4.00
2019-05-29T10:40:32.290Z,3.90
2019-05-29T10:43:04.297Z,4.50
2019-05-29T10:45:36.372Z,3.42
2019-05-29T10:48:08.359Z,3.70
2019-05-29T10:50:40.400Z,3.45
2019-05-29T10:53:12.382Z,4.05
2019-05-29T10:55:44.495Z,3.90
2019-05-29T10:58:16.455Z,3.58
2019-05-29T11:00:49.125Z,3.10
2019-05-29T11:03:21.112Z,4.00
2019-05-29T11:05:53.782Z,2.95
2019-05-29T11:08:25.780Z,2.70
2019-05-29T11:10:57.785Z,3.25
2019-05-29T11:13:29.735Z,3.15
2019-05-29T11:16:01.720Z,3.35
2019-05-29T11:18:33.763Z,3.30
2019-05-29T11:21:05.949Z,3.00
2019-05-29T11:23:37.978Z,2.95
2019-05-29T11:26:10.097Z,2.65
2019-05-29T11:28:42.083Z,2.62
2019-05-29T11:31:14.206Z,2.70
2019-05-29T11:33:46.255Z,2.55
2019-05-29T11:36:18.443Z,2.80
2019-05-29T11:38:50.577Z,3.05
2019-05-29T11:41:26.233Z,2.72
2019-05-29T11:43:56.867Z,2.70
2019-05-29T11:46:28.945Z,2.83
2019-05-29T11:49:00.943Z,3.40
2019-05-29T11:51:33.092Z,3.37
2019-05-29T11:54:05.081Z,2.85
2019-05-29T11:56:37.075Z,3.30
2019-05-29T11:59:09.072Z,4.00
2019-05-29T12:01:50.173Z,3.72
2019-05-29T12:04:25.401Z,3.45
2019-05-29T12:06:48.839Z,3.47
2019-05-29T12:09:32.316Z,3.50
2019-05-29T12:11:55.982Z,3.20
2019-05-29T12:14:28.287Z,3.22
2019-05-29T12:17:00.640Z,2.62
2019-05-29T12:19:32.811Z,2.80
2019-05-29T12:22:04.788Z,2.62
2019-05-29T12:24:36.758Z,2.87
2019-05-29T12:27:08.759Z,2.85
2019-05-29T12:29:40.788Z,2.80
2019-05-29T12:32:13.044Z,2.90
2019-05-29T12:34:53.729Z,3.22
2019-05-29T12:37:19.134Z,2.95
2019-05-29T12:39:51.202Z,3.20
2019-05-29T12:42:23.175Z,3.27
2019-05-29T12:44:55.462Z,3.00
2019-05-29T12:47:27.794Z,2.27
2019-05-29T12:50:00.642Z,2.35
2019-05-29T12:52:33.710Z,2.30
2019-05-29T12:55:05.893Z,2.25
2019-05-29T12:57:37.888Z,2.17
2019-05-29T13:00:11.363Z,2.02
2019-05-29T13:02:43.387Z,1.70
2019-05-29T13:05:20.097Z,1.40
2019-05-29T13:07:49.485Z,1.70
2019-05-29T13:10:30.678Z,1.72
2019-05-29T13:13:02.421Z,3.17
2019-05-29T13:15:29.867Z,2.25
2019-05-29T13:18:06.254Z,1.95
2019-05-29T13:20:35.765Z,2.30
2019-05-29T13:23:08.589Z,2.20
2019-05-29T13:25:40.578Z,2.33
2019-05-29T13:28:12.604Z,2.10
2019-05-29T13:30:44.640Z,2.05
2019-05-29T13:33:16.689Z,2.22
2019-05-29T13:35:48.667Z,2.20
2019-05-29T13:38:20.635Z,2.40
2019-05-29T13:40:52.665Z,2.72
2019-05-29T13:43:24.674Z,2.58
2019-05-29T13:45:56.718Z,3.05
2019-05-29T13:48:28.718Z,2.50
2019-05-29T13:51:01.695Z,2.35
2019-05-29T13:53:33.795Z,2.30
2019-05-29T13:56:06.201Z,3.02
2019-05-29T13:58:38.260Z,2.77
2019-05-29T14:01:10.265Z,3.20
2019-05-29T14:03:42.251Z,2.60
2019-05-29T14:06:14.260Z,3.00
2019-05-29T14:08:46.283Z,3.30
2019-05-29T14:11:18.284Z,3.22
2019-05-29T14:13:50.311Z,3.75
2019-05-29T14:16:25.406Z,3.83
2019-05-29T14:18:57.433Z,4.55
2019-05-29T14:21:29.473Z,4.55
2019-05-29T14:24:02.791Z,4.60
2019-05-29T14:26:35.397Z,4.37
2019-05-29T14:29:07.611Z,3.90
2019-05-29T14:31:39.846Z,4.72
2019-05-29T14:34:11.833Z,4.67
2019-05-29T14:36:43.967Z,4.08
2019-05-29T14:39:16.024Z,3.80
2019-05-29T14:41:48.011Z,3.90
2019-05-29T14:44:20.008Z,4.28
2019-05-29T14:46:52.021Z,4.17
2019-05-29T14:49:26.939Z,4.40
2019-05-29T14:51:59.203Z,4.90
2019-05-29T14:54:41.403Z,5.63
2019-05-29T14:57:17.474Z,4.87
2019-05-29T14:59:39.135Z,5.00
2019-05-29T15:02:19.856Z,5.08
2019-05-29T15:04:45.003Z,4.50
2019-05-29T15:07:17.006Z,4.40
2019-05-29T15:09:49.110Z,4.30
2019-05-29T15:12:21.099Z,4.65
2019-05-29T15:14:53.182Z,5.53
2019-05-29T15:17:25.175Z,5.37
2019-05-29T15:19:57.204Z,6.13
2019-05-29T15:22:29.190Z,5.22
2019-05-29T15:25:11.507Z,5.03
2019-05-29T15:27:35.107Z,5.12
2019-05-29T15:30:08.756Z,6.10
2019-05-29T15:32:41.231Z,5.97
2019-05-29T15:35:17.613Z,5.90
2019-05-29T15:37:47.524Z,6.17
2019-05-29T15:40:19.549Z,25.70
2019-05-29T15:42:51.586Z,10.70
2019-05-29T15:45:23.723Z,9.45
2019-05-29T15:47:55.729Z,8.40
2019-05-29T15:50:27.747Z,7.62
2019-05-29T15:52:59.789Z,10.23
2019-05-29T15:55:34.744Z,8.40
2019-05-29T15:58:07.128Z,7.95
2019-05-29T16:00:39.407Z,9.58
2019-05-29T16:03:11.568Z,7.47
2019-05-29T16:05:43.642Z,6.30
2019-05-29T16:08:16.095Z,7.05
2019-05-29T16:10:48.273Z,7.05
2019-05-29T16:13:20.280Z,6.60
2019-05-29T16:15:52.306Z,7.80
2019-05-29T16:18:29.217Z,12.05
2019-05-29T16:20:58.279Z,7.15
2019-05-29T16:23:35.896Z,6.65
2019-05-29T16:26:04.242Z,6.93
2019-05-29T16:28:36.396Z,6.67
2019-05-29T16:31:08.468Z,6.47
2019-05-29T16:33:40.500Z,6.58
2019-05-29T16:36:12.690Z,6.30
2019-05-29T16:38:44.734Z,7.17
2019-05-29T16:41:17.935Z,7.37
2019-05-29T16:43:50.085Z,6.90
2019-05-29T16:46:24.060Z,6.85
2019-05-29T16:48:55.984Z,6.60
2019-05-29T16:51:28.138Z,6.45
2019-05-29T16:54:00.137Z,6.42
2019-05-29T16:56:32.185Z,6.13
2019-05-29T16:59:04.200Z,6.70
2019-05-29T17:01:36.226Z,6.83
2019-05-29T17:04:08.241Z,6.63
2019-05-29T17:06:40.245Z,6.58
2019-05-29T17:09:12.236Z,6.23
2019-05-29T17:11:44.261Z,6.97
2019-05-29T17:14:16.492Z,6.83
2019-05-29T17:16:48.585Z,6.57
2019-05-29T17:19:20.737Z,5.85
2019-05-29T17:21:52.752Z,6.10
2019-05-29T17:24:25.104Z,6.12
2019-05-29T17:26:57.189Z,6.63
2019-05-29T17:29:29.204Z,6.23
2019-05-29T17:32:01.441Z,6.43
2019-05-29T17:34:33.700Z,6.70
2019-05-29T17:37:05.795Z,7.13
2019-05-29T17:39:37.754Z,6.87
2019-05-29T17:42:09.795Z,7.00
2019-05-29T17:44:41.792Z,6.90
2019-05-29T17:47:13.789Z,7.20
2019-05-29T17:49:45.790Z,7.53
2019-05-29T17:52:17.847Z,6.70
2019-05-29T17:54:49.827Z,7.30
2019-05-29T17:57:22.068Z,6.43
2019-05-29T17:59:54.200Z,6.73
2019-05-29T18:02:26.425Z,7.43
2019-05-29T18:04:58.435Z,6.60
2019-05-29T18:07:30.503Z,6.80
2019-05-29T18:10:02.648Z,7.17
2019-05-29T18:12:34.680Z,7.10
2019-05-29T18:15:07.429Z,7.20
2019-05-29T18:17:39.490Z,12.47
2019-05-29T18:20:14.510Z,17.30
2019-05-29T18:22:45.433Z,10.03
2019-05-29T18:25:18.154Z,7.67
2019-05-29T18:27:50.242Z,7.97
2019-05-29T18:30:24.378Z,7.70
2019-05-29T18:32:56.604Z,8.43
2019-05-29T18:35:29.064Z,6.73
2019-05-29T18:38:01.221Z,7.07
2019-05-29T18:40:33.240Z,7.90
2019-05-29T18:43:05.340Z,7.37
2019-05-29T18:45:37.417Z,8.50
2019-05-29T18:48:09.481Z,8.10
2019-05-29T18:50:44.241Z,8.33
2019-05-29T18:53:15.545Z,8.07
2019-05-29T18:55:47.585Z,8.20
2019-05-29T18:58:19.686Z,8.73
2019-05-29T19:00:51.749Z,8.10
2019-05-29T19:03:23.796Z,9.07
2019-05-29T19:05:55.814Z,7.47
2019-05-29T19:08:27.876Z,8.33
2019-05-29T19:10:59.932Z,8.00
2019-05-29T19:13:32.136Z,8.17
2019-05-29T19:16:04.528Z,7.80
2019-05-29T19:18:36.548Z,7.53
2019-05-29T19:21:08.610Z,8.73
2019-05-29T19:23:40.636Z,8.73
2019-05-29T19:26:12.721Z,9.00
2019-05-29T19:28:44.786Z,7.27
2019-05-29T19:31:16.851Z,8.30
2019-05-29T19:33:48.849Z,8.50
2019-05-29T19:36:20.927Z,7.33
2019-05-29T19:38:53.013Z,7.50
2019-05-29T19:41:25.765Z,8.70
2019-05-29T19:43:57.861Z,8.50
2019-05-29T19:46:31.074Z,8.00
2019-05-29T19:49:03.673Z,8.23
2019-05-29T19:51:35.833Z,8.67
2019-05-29T19:54:07.813Z,7.57
2019-05-29T19:56:39.835Z,8.70
2019-05-29T19:59:11.859Z,9.60
2019-05-29T20:01:43.902Z,10.60
2019-05-29T20:04:15.930Z,10.00
2019-05-29T20:06:48.000Z,10.17
2019-05-29T20:09:19.995Z,10.30
2019-05-29T20:11:52.054Z,10.67
2019-05-29T20:14:24.084Z,9.53
2019-05-29T20:16:56.233Z,10.37
2019-05-29T20:19:30.392Z,9.07
2019-05-29T20:22:02.294Z,9.50
2019-05-29T20:24:34.982Z,7.83
2019-05-29T20:27:07.050Z,7.97
2019-05-29T20:29:39.107Z,8.50
2019-05-29T20:32:11.135Z,8.87
2019-05-29T20:34:43.525Z,8.50
2019-05-29T20:37:15.631Z,8.13
2019-05-29T20:39:47.651Z,7.87
2019-05-29T20:42:19.671Z,9.03
2019-05-29T20:44:51.741Z,10.03
2019-05-29T20:47:23.854Z,10.70
2019-05-29T20:49:56.380Z,10.43
2019-05-29T20:52:28.415Z,10.83
2019-05-29T20:55:00.471Z,11.57
2019-05-29T20:57:33.778Z,9.17
2019-05-29T21:00:07.425Z,10.47
2019-05-29T21:02:40.432Z,10.33
2019-05-29T21:05:12.799Z,10.30
2019-05-29T21:07:44.899Z,9.37
2019-05-29T21:10:18.501Z,11.77
2019-05-29T21:12:50.624Z,11.63
2019-05-29T21:15:22.641Z,10.23
2019-05-29T21:17:54.688Z,11.17
2019-05-29T21:20:29.095Z,8.60
2019-05-29T21:23:00.611Z,8.77
2019-05-29T21:25:32.711Z,9.73
2019-05-29T21:28:05.321Z,9.20
2019-05-29T21:30:37.527Z,9.33
2019-05-29T21:33:12.500Z,10.33
2019-05-29T21:35:44.598Z,9.83
2019-05-29T21:38:16.658Z,10.47
2019-05-29T21:40:48.680Z,10.20
2019-05-29T21:43:20.691Z,9.73
2019-05-29T21:45:52.722Z,8.93
2019-05-29T21:48:24.777Z,9.17
2019-05-29T21:50:56.832Z,9.37
2019-05-29T21:53:28.851Z,10.10
2019-05-29T21:56:00.835Z,9.03
2019-05-29T21:58:32.872Z,10.30
2019-05-29T22:01:04.894Z,9.50
2019-05-29T22:03:38.246Z,8.57
2019-05-29T22:06:10.432Z,9.80
2019-05-29T22:08:42.841Z,8.60
2019-05-29T22:11:15.146Z,9.17
2019-05-29T22:13:47.108Z,9.20
2019-05-29T22:16:19.154Z,10.03
2019-05-29T22:18:51.119Z,10.70
2019-05-29T22:21:23.139Z,9.97
2019-05-29T22:23:55.176Z,9.83
2019-05-29T22:26:27.080Z,11.33
2019-05-29T22:29:16.699Z,13.00
2019-05-29T22:31:32.980Z,10.13
2019-05-29T22:34:04.982Z,11.23
2019-05-29T22:36:36.986Z,11.43
2019-05-29T22:39:08.970Z,10.90
2019-05-29T22:41:40.964Z,10.70
2019-05-29T22:44:12.952Z,11.87
2019-05-29T22:46:44.937Z,12.53
2019-05-29T22:49:16.927Z,11.40
2019-05-29T22:51:48.930Z,9.37
2019-05-29T22:54:20.910Z,9.80
2019-05-29T22:56:53.985Z,7.93
2019-05-29T22:59:31.804Z,9.47
2019-05-29T23:02:00.340Z,7.70
2019-05-29T23:04:32.440Z,11.67
2019-05-29T23:07:04.467Z,9.03
2019-05-29T23:09:36.435Z,9.63
2019-05-29T23:12:08.419Z,7.67
2019-05-29T23:14:40.353Z,9.00
2019-05-29T23:17:12.335Z,8.27
2019-05-29T23:19:44.303Z,7.87
2019-05-29T23:22:16.303Z,7.37
2019-05-29T23:24:48.273Z,8.97
2019-05-29T23:27:20.235Z,7.40
2019-05-29T23:29:52.704Z,7.77
2019-05-29T23:32:24.836Z,7.13
2019-05-29T23:34:57.149Z,8.00
2019-05-29T23:37:29.186Z,8.43
2019-05-29T23:40:01.323Z,7.20
2019-05-29T23:42:33.361Z,7.80
2019-05-29T23:45:05.582Z,8.03
2019-05-29T23:47:37.574Z,7.87
2019-05-29T23:50:09.846Z,8.57
2019-05-29T23:52:41.850Z,8.37
2019-05-29T23:55:13.857Z,8.70
2019-05-29T23:57:45.851Z,9.60
